sensor_id;sensor_type;location;lat;lon;timestamp;pressure;altitude;pressure_sealevel;temperature;humidity
7050;BME280;22263;52.260;10.548;2023-07-16T00:01:53;99786.41;;;22.81;100.00
7050;BME280;22263;52.260;10.548;2023-07-16T00:04:26;99787.13;;;22.91;100.00
7050;BME280;22263;52.260;10.548;2023-07-16T00:06:56;99771.03;;;22.82;100.00
7050;BME280;22263;52.260;10.548;2023-07-16T00:09:25;99784.41;;;22.73;100.00
7050;BME280;22263;52.260;10.548;2023-07-16T00:11:55;99751.22;;;22.68;100.00
7050;BME280;22263;52.260;10.548;2023-07-16T00:14:25;99752.00;;;22.68;100.00
7050;BME280;22263;52.260;10.548;2023-07-16T00:16:55;99753.41;;;22.73;100.00
7050;BME280;22263;52.260;10.548;2023-07-16T00:19:27;99760.88;;;22.76;100.00
7050;BME280;22263;52.260;10.548;2023-07-16T00:21:57;99775.91;;;22.82;100.00
7050;BME280;22263;52.260;10.548;2023-07-16T00:24:27;99790.16;;;22.78;100.00
7050;BME280;22263;52.260;10.548;2023-07-16T00:26:57;99806.91;;;22.82;100.00
7050;BME280;22263;52.260;10.548;2023-07-16T00:29:27;99812.13;;;22.65;100.00
7050;BME280;22263;52.260;10.548;2023-07-16T00:31:56;99820.09;;;22.76;100.00
7050;BME280;22263;52.260;10.548;2023-07-16T00:34:29;99821.47;;;22.80;100.00
7050;BME280;22263;52.260;10.548;2023-07-16T00:37:00;99838.59;;;22.77;100.00
7050;BME280;22263;52.260;10.548;2023-07-16T00:39:31;99844.69;;;22.75;100.00
7050;BME280;22263;52.260;10.548;2023-07-16T00:42:01;99859.41;;;22.79;100.00
7050;BME280;22263;52.260;10.548;2023-07-16T00:44:33;99842.19;;;22.77;100.00
7050;BME280;22263;52.260;10.548;2023-07-16T00:47:03;99865.81;;;22.80;100.00
7050;BME280;22263;52.260;10.548;2023-07-16T00:49:37;99864.91;;;22.74;100.00
7050;BME280;22263;52.260;10.548;2023-07-16T00:52:13;99851.75;;;22.71;100.00
7050;BME280;22263;52.260;10.548;2023-07-16T00:54:44;99836.72;;;22.65;100.00
7050;BME280;22263;52.260;10.548;2023-07-16T00:57:14;99836.56;;;22.77;100.00
7050;BME280;22263;52.260;10.548;2023-07-16T00:59:44;99840.44;;;22.80;100.00
7050;BME280;22263;52.260;10.548;2023-07-16T01:02:16;99851.25;;;22.81;100.00
7050;BME280;22263;52.260;10.548;2023-07-16T01:04:49;99846.72;;;22.75;100.00
7050;BME280;22263;52.260;10.548;2023-07-16T01:07:21;99837.50;;;22.74;100.00
7050;BME280;22263;52.260;10.548;2023-07-16T01:09:54;99800.97;;;22.80;100.00
7050;BME280;22263;52.260;10.548;2023-07-16T01:12:26;99781.81;;;22.84;100.00
7050;BME280;22263;52.260;10.548;2023-07-16T01:14:56;99738.97;;;22.94;100.00
7050;BME280;22263;52.260;10.548;2023-07-16T01:17:27;99741.59;;;22.98;100.00
7050;BME280;22263;52.260;10.548;2023-07-16T01:19:59;99786.34;;;22.90;100.00
7050;BME280;22263;52.260;10.548;2023-07-16T01:25:40;99840.16;;;22.78;100.00
7050;BME280;22263;52.260;10.548;2023-07-16T01:28:35;99840.97;;;22.93;100.00
7050;BME280;22263;52.260;10.548;2023-07-16T01:31:11;99841.88;;;22.75;100.00
7050;BME280;22263;52.260;10.548;2023-07-16T01:33:42;99844.69;;;22.75;100.00
7050;BME280;22263;52.260;10.548;2023-07-16T01:36:13;99821.94;;;22.79;100.00
7050;BME280;22263;52.260;10.548;2023-07-16T01:38:44;99821.66;;;22.77;100.00
7050;BME280;22263;52.260;10.548;2023-07-16T01:41:14;99818.31;;;22.87;100.00
7050;BME280;22263;52.260;10.548;2023-07-16T01:43:44;99835.25;;;22.87;100.00
7050;BME280;22263;52.260;10.548;2023-07-16T01:46:17;99858.75;;;22.84;100.00
7050;BME280;22263;52.260;10.548;2023-07-16T01:48:48;99862.41;;;22.67;100.00
7050;BME280;22263;52.260;10.548;2023-07-16T01:51:17;99864.75;;;22.68;100.00
7050;BME280;22263;52.260;10.548;2023-07-16T01:53:47;99863.47;;;22.78;100.00
7050;BME280;22263;52.260;10.548;2023-07-16T01:56:17;99855.31;;;22.80;100.00
7050;BME280;22263;52.260;10.548;2023-07-16T01:58:47;99830.53;;;22.84;100.00
7050;BME280;22263;52.260;10.548;2023-07-16T02:01:20;99788.38;;;22.90;100.00
7050;BME280;22263;52.260;10.548;2023-07-16T02:03:49;99780.16;;;22.77;100.00
7050;BME280;22263;52.260;10.548;2023-07-16T02:06:19;99828.81;;;22.54;100.00
7050;BME280;22263;52.260;10.548;2023-07-16T02:08:49;99825.63;;;22.61;100.00
7050;BME280;22263;52.260;10.548;2023-07-16T02:11:19;99830.16;;;22.68;100.00
7050;BME280;22263;52.260;10.548;2023-07-16T02:13:49;99811.81;;;22.72;100.00
7050;BME280;22263;52.260;10.548;2023-07-16T02:16:24;99834.97;;;22.76;100.00
7050;BME280;22263;52.260;10.548;2023-07-16T02:18:54;99845.50;;;22.67;100.00
7050;BME280;22263;52.260;10.548;2023-07-16T02:21:24;99845.03;;;22.59;100.00
7050;BME280;22263;52.260;10.548;2023-07-16T02:23:53;99840.81;;;22.64;100.00
7050;BME280;22263;52.260;10.548;2023-07-16T02:26:24;99852.56;;;22.62;100.00
7050;BME280;22263;52.260;10.548;2023-07-16T02:28:55;99859.78;;;22.63;100.00
7050;BME280;22263;52.260;10.548;2023-07-16T02:31:28;99858.53;;;22.55;100.00
7050;BME280;22263;52.260;10.548;2023-07-16T02:33:58;99857.75;;;22.54;100.00
7050;BME280;22263;52.260;10.548;2023-07-16T02:36:28;99853.44;;;22.44;100.00
7050;BME280;22263;52.260;10.548;2023-07-16T02:38:55;99855.75;;;22.46;100.00
7050;BME280;22263;52.260;10.548;2023-07-16T02:41:25;99846.97;;;22.53;100.00
7050;BME280;22263;52.260;10.548;2023-07-16T02:43:59;99852.69;;;22.26;100.00
7050;BME280;22263;52.260;10.548;2023-07-16T02:46:32;99847.06;;;22.26;100.00
7050;BME280;22263;52.260;10.548;2023-07-16T02:49:03;99858.88;;;22.06;100.00
7050;BME280;22263;52.260;10.548;2023-07-16T02:51:33;99859.03;;;21.93;100.00
7050;BME280;22263;52.260;10.548;2023-07-16T02:54:02;99865.63;;;21.72;100.00
7050;BME280;22263;52.260;10.548;2023-07-16T02:56:33;99887.44;;;21.13;100.00
7050;BME280;22263;52.260;10.548;2023-07-16T02:59:03;99930.84;;;20.41;100.00
7050;BME280;22263;52.260;10.548;2023-07-16T03:01:35;99943.19;;;20.22;100.00
7050;BME280;22263;52.260;10.548;2023-07-16T03:04:05;99969.34;;;20.19;100.00
7050;BME280;22263;52.260;10.548;2023-07-16T03:06:35;100028.38;;;20.07;100.00
7050;BME280;22263;52.260;10.548;2023-07-16T03:09:05;100019.03;;;20.10;100.00
7050;BME280;22263;52.260;10.548;2023-07-16T03:11:34;100024.72;;;19.97;100.00
7050;BME280;22263;52.260;10.548;2023-07-16T03:14:04;100012.53;;;19.78;100.00
7050;BME280;22263;52.260;10.548;2023-07-16T03:16:36;99998.53;;;19.66;100.00
7050;BME280;22263;52.260;10.548;2023-07-16T03:19:09;100017.41;;;19.65;100.00
7050;BME280;22263;52.260;10.548;2023-07-16T03:21:38;100018.38;;;19.71;100.00
7050;BME280;22263;52.260;10.548;2023-07-16T03:24:09;100019.16;;;19.72;100.00
7050;BME280;22263;52.260;10.548;2023-07-16T03:26:39;100023.53;;;19.73;100.00
7050;BME280;22263;52.260;10.548;2023-07-16T03:29:08;100023.75;;;19.78;100.00
7050;BME280;22263;52.260;10.548;2023-07-16T03:31:41;100033.75;;;19.79;100.00
7050;BME280;22263;52.260;10.548;2023-07-16T03:34:15;100032.88;;;19.70;100.00
7050;BME280;22263;52.260;10.548;2023-07-16T03:36:44;100032.22;;;19.66;100.00
7050;BME280;22263;52.260;10.548;2023-07-16T03:39:14;100038.16;;;19.68;100.00
7050;BME280;22263;52.260;10.548;2023-07-16T03:41:44;100045.69;;;19.71;100.00
7050;BME280;22263;52.260;10.548;2023-07-16T03:44:14;100036.34;;;19.74;100.00
7050;BME280;22263;52.260;10.548;2023-07-16T03:46:46;100039.03;;;19.77;100.00
7050;BME280;22263;52.260;10.548;2023-07-16T03:49:16;100044.19;;;19.79;100.00
7050;BME280;22263;52.260;10.548;2023-07-16T03:51:46;100045.09;;;19.76;100.00
7050;BME280;22263;52.260;10.548;2023-07-16T03:54:15;100048.78;;;19.73;100.00
7050;BME280;22263;52.260;10.548;2023-07-16T03:56:45;100042.31;;;19.76;100.00
7050;BME280;22263;52.260;10.548;2023-07-16T03:59:15;100046.34;;;19.75;100.00
7050;BME280;22263;52.260;10.548;2023-07-16T04:01:47;100048.09;;;19.81;100.00
7050;BME280;22263;52.260;10.548;2023-07-16T04:04:17;100049.47;;;19.77;100.00
7050;BME280;22263;52.260;10.548;2023-07-16T04:06:47;100055.94;;;19.86;100.00
7050;BME280;22263;52.260;10.548;2023-07-16T04:09:17;100059.19;;;19.97;100.00
7050;BME280;22263;52.260;10.548;2023-07-16T04:11:46;100063.00;;;19.91;100.00
7050;BME280;22263;52.260;10.548;2023-07-16T04:14:16;100049.84;;;20.00;100.00
7050;BME280;22263;52.260;10.548;2023-07-16T04:16:48;100052.22;;;20.02;100.00
7050;BME280;22263;52.260;10.548;2023-07-16T04:19:18;100049.03;;;20.13;100.00
7050;BME280;22263;52.260;10.548;2023-07-16T04:21:48;100052.72;;;20.22;100.00
7050;BME280;22263;52.260;10.548;2023-07-16T04:24:18;100057.88;;;20.24;100.00
7050;BME280;22263;52.260;10.548;2023-07-16T04:26:47;100056.50;;;20.28;100.00
7050;BME280;22263;52.260;10.548;2023-07-16T04:29:17;100060.72;;;20.45;100.00
7050;BME280;22263;52.260;10.548;2023-07-16T04:31:50;100072.94;;;20.52;100.00
7050;BME280;22263;52.260;10.548;2023-07-16T04:34:20;100079.34;;;20.52;100.00
7050;BME280;22263;52.260;10.548;2023-07-16T04:36:50;100084.19;;;20.52;100.00
7050;BME280;22263;52.260;10.548;2023-07-16T04:39:19;100087.59;;;20.47;100.00
7050;BME280;22263;52.260;10.548;2023-07-16T04:41:49;100080.41;;;20.45;100.00
7050;BME280;22263;52.260;10.548;2023-07-16T04:44:19;100085.81;;;20.40;100.00
7050;BME280;22263;52.260;10.548;2023-07-16T04:46:54;100095.03;;;20.40;100.00
7050;BME280;22263;52.260;10.548;2023-07-16T04:49:24;100097.75;;;20.31;100.00
7050;BME280;22263;52.260;10.548;2023-07-16T04:51:54;100093.25;;;20.21;100.00
7050;BME280;22263;52.260;10.548;2023-07-16T04:54:23;100095.97;;;20.12;100.00
7050;BME280;22263;52.260;10.548;2023-07-16T04:56:53;100101.66;;;19.99;100.00
7050;BME280;22263;52.260;10.548;2023-07-16T04:59:23;100103.75;;;19.95;100.00
7050;BME280;22263;52.260;10.548;2023-07-16T05:01:55;100096.78;;;20.00;100.00
7050;BME280;22263;52.260;10.548;2023-07-16T05:04:25;100090.38;;;20.12;100.00
7050;BME280;22263;52.260;10.548;2023-07-16T05:06:55;100098.88;;;20.21;100.00
7050;BME280;22263;52.260;10.548;2023-07-16T05:09:24;100100.97;;;20.30;100.00
7050;BME280;22263;52.260;10.548;2023-07-16T05:11:54;100097.38;;;20.29;100.00
7050;BME280;22263;52.260;10.548;2023-07-16T05:14:26;100088.66;;;20.15;100.00
7050;BME280;22263;52.260;10.548;2023-07-16T05:16:59;100088.94;;;20.29;100.00
7050;BME280;22263;52.260;10.548;2023-07-16T05:19:29;100086.06;;;20.33;100.00
7050;BME280;22263;52.260;10.548;2023-07-16T05:21:59;100082.84;;;20.43;100.00
7050;BME280;22263;52.260;10.548;2023-07-16T05:24:28;100083.19;;;20.45;100.00
7050;BME280;22263;52.260;10.548;2023-07-16T05:26:58;100094.84;;;20.57;100.00
7050;BME280;22263;52.260;10.548;2023-07-16T05:29:28;100093.00;;;20.63;100.00
7050;BME280;22263;52.260;10.548;2023-07-16T05:32:00;100093.59;;;20.58;100.00
7050;BME280;22263;52.260;10.548;2023-07-16T05:34:30;100101.63;;;20.68;100.00
7050;BME280;22263;52.260;10.548;2023-07-16T05:37:00;100092.50;;;20.55;100.00
7050;BME280;22263;52.260;10.548;2023-07-16T05:39:30;100089.81;;;20.73;100.00
7050;BME280;22263;52.260;10.548;2023-07-16T05:42:00;100091.09;;;20.81;100.00
7050;BME280;22263;52.260;10.548;2023-07-16T05:44:30;100086.84;;;20.77;100.00
7050;BME280;22263;52.260;10.548;2023-07-16T05:47:03;100088.69;;;20.93;100.00
7050;BME280;22263;52.260;10.548;2023-07-16T05:49:33;100096.22;;;20.96;100.00
7050;BME280;22263;52.260;10.548;2023-07-16T05:52:04;100089.22;;;21.00;100.00
7050;BME280;22263;52.260;10.548;2023-07-16T05:54:35;100082.59;;;20.94;100.00
7050;BME280;22263;52.260;10.548;2023-07-16T05:57:06;100090.66;;;20.83;100.00
7050;BME280;22263;52.260;10.548;2023-07-16T05:59:36;100093.25;;;20.99;100.00
7050;BME280;22263;52.260;10.548;2023-07-16T06:02:08;100085.09;;;21.14;100.00
7050;BME280;22263;52.260;10.548;2023-07-16T06:04:38;100084.94;;;21.17;100.00
7050;BME280;22263;52.260;10.548;2023-07-16T06:07:07;100098.00;;;21.11;100.00
7050;BME280;22263;52.260;10.548;2023-07-16T06:09:37;100095.94;;;21.24;100.00
7050;BME280;22263;52.260;10.548;2023-07-16T06:12:07;100096.03;;;21.43;100.00
7050;BME280;22263;52.260;10.548;2023-07-16T06:14:37;100100.44;;;21.53;100.00
7050;BME280;22263;52.260;10.548;2023-07-16T06:17:09;100104.06;;;21.62;100.00
7050;BME280;22263;52.260;10.548;2023-07-16T06:19:39;100105.03;;;21.77;100.00
7050;BME280;22263;52.260;10.548;2023-07-16T06:22:08;100108.41;;;21.94;100.00
7050;BME280;22263;52.260;10.548;2023-07-16T06:24:38;100104.28;;;21.77;100.00
7050;BME280;22263;52.260;10.548;2023-07-16T06:27:08;100106.19;;;21.89;100.00
7050;BME280;22263;52.260;10.548;2023-07-16T06:29:37;100092.16;;;21.98;100.00
7050;BME280;22263;52.260;10.548;2023-07-16T06:32:10;100092.94;;;22.17;100.00
7050;BME280;22263;52.260;10.548;2023-07-16T06:34:40;100101.84;;;22.06;100.00
7050;BME280;22263;52.260;10.548;2023-07-16T06:37:10;100101.41;;;22.35;100.00
7050;BME280;22263;52.260;10.548;2023-07-16T06:39:39;100101.13;;;22.51;100.00
7050;BME280;22263;52.260;10.548;2023-07-16T06:42:09;100111.16;;;22.43;100.00
7050;BME280;22263;52.260;10.548;2023-07-16T06:44:39;100113.16;;;22.61;100.00
7050;BME280;22263;52.260;10.548;2023-07-16T06:47:11;100121.16;;;22.90;100.00
7050;BME280;22263;52.260;10.548;2023-07-16T06:49:42;100121.97;;;22.81;100.00
7050;BME280;22263;52.260;10.548;2023-07-16T06:52:18;100124.78;;;22.81;100.00
7050;BME280;22263;52.260;10.548;2023-07-16T06:54:48;100129.94;;;22.92;100.00
7050;BME280;22263;52.260;10.548;2023-07-16T06:57:18;100123.50;;;23.00;100.00
7050;BME280;22263;52.260;10.548;2023-07-16T06:59:48;100133.19;;;23.18;100.00
7050;BME280;22263;52.260;10.548;2023-07-16T07:02:20;100137.75;;;23.06;100.00
7050;BME280;22263;52.260;10.548;2023-07-16T07:04:50;100143.09;;;23.04;100.00
7050;BME280;22263;52.260;10.548;2023-07-16T07:07:22;100138.66;;;23.30;100.00
7050;BME280;22263;52.260;10.548;2023-07-16T07:09:51;100135.75;;;23.58;100.00
7050;BME280;22263;52.260;10.548;2023-07-16T07:12:21;100126.81;;;23.92;100.00
7050;BME280;22263;52.260;10.548;2023-07-16T07:14:51;100131.88;;;23.79;100.00
7050;BME280;22263;52.260;10.548;2023-07-16T07:17:23;100134.44;;;24.01;100.00
7050;BME280;22263;52.260;10.548;2023-07-16T07:19:53;100137.63;;;24.26;100.00
7050;BME280;22263;52.260;10.548;2023-07-16T07:22:23;100138.16;;;24.40;100.00
7050;BME280;22263;52.260;10.548;2023-07-16T07:24:53;100139.66;;;24.26;100.00
7050;BME280;22263;52.260;10.548;2023-07-16T07:27:23;100132.88;;;24.00;100.00
7050;BME280;22263;52.260;10.548;2023-07-16T07:29:53;100142.28;;;24.06;100.00
7050;BME280;22263;52.260;10.548;2023-07-16T07:32:25;100133.63;;;23.34;100.00
7050;BME280;22263;52.260;10.548;2023-07-16T07:34:55;100136.22;;;23.56;100.00
7050;BME280;22263;52.260;10.548;2023-07-16T07:37:28;100135.72;;;24.00;100.00
7050;BME280;22263;52.260;10.548;2023-07-16T07:39:59;100135.50;;;24.12;100.00
7050;BME280;22263;52.260;10.548;2023-07-16T07:42:30;100132.91;;;24.23;100.00
7050;BME280;22263;52.260;10.548;2023-07-16T07:45:00;100143.75;;;24.25;100.00
7050;BME280;22263;52.260;10.548;2023-07-16T07:47:32;100139.69;;;24.64;100.00
7050;BME280;22263;52.260;10.548;2023-07-16T07:50:02;100143.69;;;25.11;100.00
7050;BME280;22263;52.260;10.548;2023-07-16T07:52:32;100137.44;;;25.22;95.81
7050;BME280;22263;52.260;10.548;2023-07-16T07:55:02;100140.84;;;25.11;93.12
7050;BME280;22263;52.260;10.548;2023-07-16T07:57:33;100141.16;;;25.57;93.57
7050;BME280;22263;52.260;10.548;2023-07-16T08:00:03;100151.09;;;25.38;92.78
7050;BME280;22263;52.260;10.548;2023-07-16T08:02:43;100143.59;;;25.64;85.69
7050;BME280;22263;52.260;10.548;2023-07-16T08:05:13;100144.56;;;25.46;80.21
7050;BME280;22263;52.260;10.548;2023-07-16T08:07:42;100148.88;;;25.12;73.02
7050;BME280;22263;52.260;10.548;2023-07-16T08:10:12;100142.78;;;25.05;77.02
7050;BME280;22263;52.260;10.548;2023-07-16T08:12:42;100148.34;;;24.99;83.24
7050;BME280;22263;52.260;10.548;2023-07-16T08:15:12;100167.31;;;25.23;77.95
7050;BME280;22263;52.260;10.548;2023-07-16T08:17:45;100163.78;;;24.98;70.97
7050;BME280;22263;52.260;10.548;2023-07-16T08:20:15;100158.06;;;25.22;70.75
7050;BME280;22263;52.260;10.548;2023-07-16T08:22:45;100159.31;;;25.21;72.84
7050;BME280;22263;52.260;10.548;2023-07-16T08:25:15;100168.00;;;25.32;68.60
7050;BME280;22263;52.260;10.548;2023-07-16T08:27:45;100159.22;;;25.59;69.24
7050;BME280;22263;52.260;10.548;2023-07-16T08:30:15;100158.88;;;25.87;67.84
7050;BME280;22263;52.260;10.548;2023-07-16T08:32:47;100166.72;;;26.12;64.40
7050;BME280;22263;52.260;10.548;2023-07-16T08:35:17;100164.88;;;26.44;61.66
7050;BME280;22263;52.260;10.548;2023-07-16T08:37:47;100170.84;;;26.66;58.33
7050;BME280;22263;52.260;10.548;2023-07-16T08:40:17;100180.00;;;26.56;59.18
7050;BME280;22263;52.260;10.548;2023-07-16T08:42:48;100161.53;;;26.86;58.86
7050;BME280;22263;52.260;10.548;2023-07-16T08:45:19;100169.69;;;26.99;57.30
7050;BME280;22263;52.260;10.548;2023-07-16T08:47:54;100166.78;;;27.45;53.60
7050;BME280;22263;52.260;10.548;2023-07-16T08:50:26;100165.66;;;27.37;55.27
7050;BME280;22263;52.260;10.548;2023-07-16T08:52:59;100174.81;;;27.20;55.67
7050;BME280;22263;52.260;10.548;2023-07-16T08:55:30;100164.66;;;27.40;57.91
7050;BME280;22263;52.260;10.548;2023-07-16T08:58:00;100175.63;;;26.05;63.05
7050;BME280;22263;52.260;10.548;2023-07-16T09:00:30;100174.88;;;25.55;71.50
7050;BME280;22263;52.260;10.548;2023-07-16T09:03:04;100176.41;;;25.71;75.43
7050;BME280;22263;52.260;10.548;2023-07-16T09:05:34;100175.53;;;25.65;76.19
7050;BME280;22263;52.260;10.548;2023-07-16T09:08:06;100173.47;;;27.42;57.52
7050;BME280;22263;52.260;10.548;2023-07-16T09:10:37;100177.13;;;28.10;51.11
7050;BME280;22263;52.260;10.548;2023-07-16T09:13:06;100176.09;;;29.21;49.13
7050;BME280;22263;52.260;10.548;2023-07-16T09:15:38;100186.50;;;29.74;45.89
7050;BME280;22263;52.260;10.548;2023-07-16T09:18:19;100185.97;;;29.48;45.92
7050;BME280;22263;52.260;10.548;2023-07-16T09:20:54;100178.81;;;28.76;47.44
7050;BME280;22263;52.260;10.548;2023-07-16T09:23:25;100179.94;;;29.12;46.36
7050;BME280;22263;52.260;10.548;2023-07-16T09:25:56;100163.69;;;30.02;45.28
7050;BME280;22263;52.260;10.548;2023-07-16T09:28:26;100164.75;;;31.25;44.32
7050;BME280;22263;52.260;10.548;2023-07-16T09:30:55;100171.03;;;30.66;42.91
7050;BME280;22263;52.260;10.548;2023-07-16T09:33:28;100173.25;;;30.90;42.48
7050;BME280;22263;52.260;10.548;2023-07-16T09:35:58;100182.09;;;29.62;44.01
7050;BME280;22263;52.260;10.548;2023-07-16T09:38:30;100175.84;;;29.35;44.75
7050;BME280;22263;52.260;10.548;2023-07-16T09:41:02;100190.44;;;28.78;48.19
7050;BME280;22263;52.260;10.548;2023-07-16T09:43:35;100175.72;;;28.80;45.90
7050;BME280;22263;52.260;10.548;2023-07-16T09:46:05;100186.16;;;29.22;45.47
7050;BME280;22263;52.260;10.548;2023-07-16T09:48:37;100189.78;;;29.17;43.37
7050;BME280;22263;52.260;10.548;2023-07-16T09:51:11;100192.59;;;28.94;42.50
7050;BME280;22263;52.260;10.548;2023-07-16T09:53:43;100193.03;;;27.60;45.72
7050;BME280;22263;52.260;10.548;2023-07-16T09:56:14;100200.59;;;27.43;45.98
7050;BME280;22263;52.260;10.548;2023-07-16T09:58:45;100208.72;;;27.29;46.90
7050;BME280;22263;52.260;10.548;2023-07-16T10:01:18;100195.03;;;28.65;44.13
7050;BME280;22263;52.260;10.548;2023-07-16T10:03:51;100185.19;;;30.03;41.51
7050;BME280;22263;52.260;10.548;2023-07-16T10:06:21;100197.59;;;30.22;40.64
7050;BME280;22263;52.260;10.548;2023-07-16T10:08:51;100208.50;;;29.45;41.33
7050;BME280;22263;52.260;10.548;2023-07-16T10:11:20;100203.88;;;29.87;40.39
7050;BME280;22263;52.260;10.548;2023-07-16T10:13:50;100199.19;;;30.17;40.27
7050;BME280;22263;52.260;10.548;2023-07-16T10:16:20;100205.94;;;30.09;39.93
7050;BME280;22263;52.260;10.548;2023-07-16T10:18:54;100209.03;;;29.38;41.11
7050;BME280;22263;52.260;10.548;2023-07-16T10:21:25;100213.75;;;29.92;41.02
7050;BME280;22263;52.260;10.548;2023-07-16T10:23:58;100193.66;;;31.51;38.21
7050;BME280;22263;52.260;10.548;2023-07-16T10:26:30;100203.25;;;31.18;38.42
7050;BME280;22263;52.260;10.548;2023-07-16T10:28:59;100194.44;;;32.17;37.95
7050;BME280;22263;52.260;10.548;2023-07-16T10:31:29;100206.72;;;32.61;36.10
7050;BME280;22263;52.260;10.548;2023-07-16T10:34:05;100211.47;;;31.33;36.62
7050;BME280;22263;52.260;10.548;2023-07-16T10:36:39;100208.22;;;30.38;38.21
7050;BME280;22263;52.260;10.548;2023-07-16T10:39:09;100212.44;;;30.04;39.35
7050;BME280;22263;52.260;10.548;2023-07-16T10:41:39;100216.28;;;30.28;39.93
7050;BME280;22263;52.260;10.548;2023-07-16T10:44:13;100224.53;;;30.60;39.04
7050;BME280;22263;52.260;10.548;2023-07-16T10:46:43;100208.97;;;31.13;38.09
7050;BME280;22263;52.260;10.548;2023-07-16T10:49:15;100207.31;;;30.82;38.02
7050;BME280;22263;52.260;10.548;2023-07-16T10:51:45;100225.28;;;30.66;38.29
7050;BME280;22263;52.260;10.548;2023-07-16T10:54:15;100216.97;;;29.12;40.67
7050;BME280;22263;52.260;10.548;2023-07-16T10:56:45;100230.31;;;29.87;39.32
7050;BME280;22263;52.260;10.548;2023-07-16T10:59:15;100227.16;;;29.41;39.39
7050;BME280;22263;52.260;10.548;2023-07-16T11:01:45;100222.13;;;29.02;40.46
7050;BME280;22263;52.260;10.548;2023-07-16T11:04:18;100218.38;;;29.67;39.97
7050;BME280;22263;52.260;10.548;2023-07-16T11:06:49;100229.25;;;30.24;38.82
7050;BME280;22263;52.260;10.548;2023-07-16T11:09:19;100210.88;;;31.46;37.71
7050;BME280;22263;52.260;10.548;2023-07-16T11:11:49;100211.81;;;30.61;36.76
7050;BME280;22263;52.260;10.548;2023-07-16T11:14:19;100221.34;;;30.74;37.07
7050;BME280;22263;52.260;10.548;2023-07-16T11:16:49;100232.91;;;30.08;38.45
7050;BME280;22263;52.260;10.548;2023-07-16T11:19:22;100213.16;;;30.26;37.93
7050;BME280;22263;52.260;10.548;2023-07-16T11:21:52;100226.69;;;30.15;38.38
7050;BME280;22263;52.260;10.548;2023-07-16T11:24:22;100223.06;;;31.00;37.62
7050;BME280;22263;52.260;10.548;2023-07-16T11:26:55;100214.09;;;31.31;37.48
7050;BME280;22263;52.260;10.548;2023-07-16T11:29:25;100216.97;;;31.96;36.97
7050;BME280;22263;52.260;10.548;2023-07-16T11:31:55;100227.91;;;31.98;36.32
7050;BME280;22263;52.260;10.548;2023-07-16T11:34:27;100219.25;;;31.74;36.30
7050;BME280;22263;52.260;10.548;2023-07-16T11:37:07;100218.09;;;31.52;36.47
7050;BME280;22263;52.260;10.548;2023-07-16T11:39:37;100226.44;;;31.04;37.39
7050;BME280;22263;52.260;10.548;2023-07-16T11:42:07;100220.63;;;31.97;36.67
7050;BME280;22263;52.260;10.548;2023-07-16T11:44:37;100231.28;;;31.26;36.72
7050;BME280;22263;52.260;10.548;2023-07-16T11:47:07;100230.16;;;30.88;37.37
7050;BME280;22263;52.260;10.548;2023-07-16T11:49:39;100227.66;;;30.51;37.76
7050;BME280;22263;52.260;10.548;2023-07-16T11:52:09;100221.22;;;29.83;38.59
7050;BME280;22263;52.260;10.548;2023-07-16T11:54:39;100231.47;;;30.75;38.00
7050;BME280;22263;52.260;10.548;2023-07-16T11:57:09;100219.59;;;30.60;37.63
7050;BME280;22263;52.260;10.548;2023-07-16T11:59:40;100233.66;;;29.47;39.97
7050;BME280;22263;52.260;10.548;2023-07-16T12:02:10;100229.00;;;29.44;39.16
7050;BME280;22263;52.260;10.548;2023-07-16T12:04:43;100235.00;;;30.02;37.78
7050;BME280;22263;52.260;10.548;2023-07-16T12:07:13;100246.16;;;28.90;38.69
7050;BME280;22263;52.260;10.548;2023-07-16T12:09:42;100234.19;;;28.33;40.54
7050;BME280;22263;52.260;10.548;2023-07-16T12:12:13;100227.88;;;29.25;38.96
7050;BME280;22263;52.260;10.548;2023-07-16T12:14:42;100222.16;;;29.14;38.97
7050;BME280;22263;52.260;10.548;2023-07-16T12:17:12;100223.28;;;29.38;38.89
7050;BME280;22263;52.260;10.548;2023-07-16T12:19:44;100226.97;;;29.95;37.53
7050;BME280;22263;52.260;10.548;2023-07-16T12:22:17;100240.59;;;30.74;37.11
7050;BME280;22263;52.260;10.548;2023-07-16T12:24:47;100246.97;;;31.08;36.30
7050;BME280;22263;52.260;10.548;2023-07-16T12:27:17;100226.25;;;30.80;35.76
7050;BME280;22263;52.260;10.548;2023-07-16T12:29:47;100229.28;;;30.18;37.36
7050;BME280;22263;52.260;10.548;2023-07-16T12:32:19;100246.81;;;30.78;36.84
7050;BME280;22263;52.260;10.548;2023-07-16T12:34:52;100240.16;;;30.31;37.44
7050;BME280;22263;52.260;10.548;2023-07-16T12:37:22;100241.81;;;29.12;38.54
7050;BME280;22263;52.260;10.548;2023-07-16T12:39:51;100240.31;;;28.63;40.00
7050;BME280;22263;52.260;10.548;2023-07-16T12:42:21;100238.19;;;28.52;40.66
7050;BME280;22263;52.260;10.548;2023-07-16T12:44:51;100249.75;;;29.61;38.83
7050;BME280;22263;52.260;10.548;2023-07-16T12:47:20;100239.66;;;29.82;37.02
7050;BME280;22263;52.260;10.548;2023-07-16T12:49:53;100248.41;;;29.51;37.48
7050;BME280;22263;52.260;10.548;2023-07-16T12:52:23;100236.00;;;29.65;37.98
7050;BME280;22263;52.260;10.548;2023-07-16T12:54:52;100241.03;;;29.00;38.29
7050;BME280;22263;52.260;10.548;2023-07-16T12:57:24;100245.22;;;29.21;39.14
7050;BME280;22263;52.260;10.548;2023-07-16T12:59:54;100247.75;;;29.02;38.34
7050;BME280;22263;52.260;10.548;2023-07-16T13:02:24;100248.91;;;28.74;39.21
7050;BME280;22263;52.260;10.548;2023-07-16T13:04:56;100250.47;;;28.75;39.09
7050;BME280;22263;52.260;10.548;2023-07-16T13:07:26;100250.50;;;28.80;39.03